NCAR-RAP Real-Time Weather Data

Output produced by METARs form (17 December 2018  07:44 UTC)
found at http://weather.rap.ucar.edu/surface/
 
RJTF 170700Z 14004KT 9999 FEW030 12/03 Q1003
RJTF 170600Z 16006KT 130V190 9999 FEW030 13/03 Q1002
RJTF 170500Z VRB02KT 9999 FEW030 13/02 Q1002
RJTF 170400Z 05003KT 330V120 9999 FEW030 12/02 Q1002
RJTF 170300Z 02003KT 340V050 9999 FEW030 09/03 Q1003
RJTF 170200Z 34004KT 9999 FEW030 SCT090 BKN120 06/03 Q1005
RJTF 170100Z 35006KT 8000 FEW030 SCT050 BKN090 04/03 Q1007
RJTF 170000Z 34003KT 5000 -RA BR FEW030 SCT050 BKN080 05/04 Q1008
RJTF 162330Z VRB01KT 5000 -RA BR NSC 04/04 Q1008
RJTF 160700Z VRB02KT 9999 FEW015 SCT020 BKN050 06/M01 Q1020
RJTF 160600Z 03003KT 350V060 9999 FEW020 SCT040 BKN170 05/M02 Q1021
RJTF 160500Z 01004KT 340V050 9999 FEW025 SCT035 BKN060 05/M01 Q1022
RJTF 160400Z 01004KT 340V060 9999 -RA FEW025 BKN040 BKN050 04/M02 Q1022
RJTF 160300Z 02006KT 350V050 9999 -RA FEW025 BKN040 BKN/// 04/M03 Q1023
RJTF 160200Z 01005KT 9999 FEW025 BKN040 BKN/// 04/M04 Q1024
RJTF 160100Z 01004KT 9999 FEW025 BKN035 03/M04 Q1025
RJTF 160000Z 00000KT 9999 FEW025 BKN040 02/M03 Q1026
RJTF 152330Z VRB01KT 9999 FEW030 SCT045 01/M03 Q1026
RJTF 150700Z 34009KT 9999 FEW030 07/M06 Q1025
RJTF 150600Z 35012KT 320V030 9999 FEW030 09/M07 Q1025
RJTF 150500Z 36011KT 310V040 9999 FEW030 09/M06 Q1024
RJTF 150400Z 01012KT 320V040 9999 FEW030 10/M08 Q1024
RJTF 150300Z 01015KT 330V050 9999 FEW030 09/M08 Q1024
RJTF 150200Z 01017KT 9999 FEW030 09/M08 Q1024
RJTF 150100Z 35016KT 9999 FEW030 08/M08 Q1025
RJTF 150000Z 34013KT 9999 FEW030 07/M09 Q1026
RJTF 142330Z 33012KT 9999 FEW030 07/M09 Q1025